Página principal
METAR-TAF:

METAR-TAF

Aeroportos :

Wallis, França

latitude: 13-14S, longitude: 176-10W, altura: 23 m

Observação actual do tempo

O boletim foi feito há 31 minutos, às 05:30 UTC
Vento 11 kt de sudeste, variando entre este e sul
Temperatura 27°C
Humidade 66%
Pressão 1011 hPa
Visibilidade 10 km ou mais

METAR: NLWW 230530Z AUTO 13011KT 080V170 9999 BKN034/// 27/20 Q1011 NOSIG

Hora: 18:01 (06:01 UTC)

Previsão

O boletim foi feito há 1 hora e 1 minutos, às 05:00 UTC
Previsão válida de 23 às 06 UTC a 24 às 06 UTC
Vento 12 kt de sudeste
Visibilidade 10 km ou mais
Poucas nuvensa uma altura de 3500 ft
Probabilidade 30% :
Temporariamente
de 23 às 06 UTC a 23 às 12 UTC
Vento 15 kt de sudeste com rajadas de 25 kt

TAF: NLWW 230500Z 2306/2406 14012KT 9999 FEW035 PROB30 TEMPO 2306/2312 13015G25KT

Observações e previsões do tempo de mais de 4000 aeroportos (mensagens METAR e TAF).

As estações disponíveis são os pontos amarelos e vermelhos sobre o mapa.

Mova o rato sobre o mapa para ver o nome da estação.

Depois clique no ponto para visualizar as observações e previsões meteorológicas.

Para alterar o mapa : clique nos botões verdes com uma cruz preta para aumentar o zoom; no botão verde com uma pitada de zoom; ou nas setas verdes para mapas adjacentes.


METAR-TAF: